createdAt,value
2023-03-05T00:01:24.924Z,-4.17
2023-03-05T00:03:54.404Z,-4.18
2023-03-05T00:06:23.286Z,-4.20
2023-03-05T00:08:55.356Z,-4.21
2023-03-05T00:11:24.365Z,-4.21
2023-03-05T00:13:56.547Z,-4.21
2023-03-05T00:16:27.189Z,-4.21
2023-03-05T00:18:55.896Z,-4.18
2023-03-05T00:21:28.608Z,-4.14
2023-03-05T00:23:59.038Z,-4.12
2023-03-05T00:26:27.525Z,-4.10
2023-03-05T00:28:56.034Z,-4.08
2023-03-05T00:31:28.243Z,-4.08
2023-03-05T00:34:01.249Z,-4.06
2023-03-05T00:36:29.425Z,-4.01
2023-03-05T00:38:58.914Z,-3.98
2023-03-05T00:41:27.858Z,-3.95
2023-03-05T00:43:56.129Z,-3.94
2023-03-05T00:46:24.641Z,-3.94
2023-03-05T00:48:53.542Z,-3.91
2023-03-05T00:51:21.680Z,-3.90
2023-03-05T00:53:50.842Z,-3.94
2023-03-05T00:56:18.883Z,-3.99
2023-03-05T00:58:48.032Z,-4.04
2023-03-05T01:01:16.404Z,-4.07
2023-03-05T01:03:44.327Z,-4.08
2023-03-05T01:06:13.112Z,-4.10
2023-03-05T01:08:41.158Z,-4.10
2023-03-05T01:11:09.209Z,-4.11
2023-03-05T01:13:37.391Z,-4.13
2023-03-05T01:16:06.416Z,-4.14
2023-03-05T01:18:34.723Z,-4.10
2023-03-05T01:21:03.789Z,-4.05
2023-03-05T01:23:32.403Z,-4.04
2023-03-05T01:26:01.926Z,-4.05
2023-03-05T01:28:29.890Z,-4.07
2023-03-05T01:30:57.857Z,-4.08
2023-03-05T01:33:25.775Z,-4.09
2023-03-05T01:35:54.026Z,-4.11
2023-03-05T01:38:22.017Z,-4.12
2023-03-05T01:40:50.006Z,-4.10
2023-03-05T01:43:26.832Z,-4.03
2023-03-05T01:46:13.248Z,-3.97
2023-03-05T01:48:41.289Z,-3.96
2023-03-05T01:51:09.215Z,-3.94
2023-03-05T01:53:37.148Z,-3.94
2023-03-05T01:56:05.306Z,-3.95
2023-03-05T01:58:33.407Z,-3.96
2023-03-05T02:01:01.335Z,-3.91
2023-03-05T02:03:29.330Z,-3.85
2023-03-05T02:05:57.409Z,-3.82
2023-03-05T02:08:25.288Z,-3.83
2023-03-05T02:10:55.642Z,-3.86
2023-03-05T02:13:26.936Z,-3.88
2023-03-05T02:15:55.969Z,-3.89
2023-03-05T02:18:24.057Z,-3.86
2023-03-05T02:20:58.211Z,-3.82
2023-03-05T02:23:28.135Z,-3.82
2023-03-05T02:25:56.168Z,-3.83
2023-03-05T02:28:33.586Z,-3.84
2023-03-05T02:31:01.628Z,-3.84
2023-03-05T02:33:29.693Z,-3.79
2023-03-05T02:35:57.875Z,-3.73
2023-03-05T02:38:25.961Z,-3.72
2023-03-05T02:40:53.926Z,-3.74
2023-03-05T02:43:21.887Z,-3.80
2023-03-05T02:45:50.116Z,-3.84
2023-03-05T02:48:18.183Z,-3.85
2023-03-05T02:50:47.146Z,-3.83
2023-03-05T02:53:16.338Z,-3.83
2023-03-05T02:55:47.624Z,-3.85
2023-03-05T02:58:15.920Z,-3.88
2023-03-05T03:00:43.984Z,-3.90
2023-03-05T03:03:11.953Z,-3.94
2023-03-05T03:05:40.008Z,-3.93
2023-03-05T03:08:07.984Z,-3.88
2023-03-05T03:10:35.985Z,-3.84
2023-03-05T03:13:04.046Z,-3.84
2023-03-05T03:15:32.084Z,-3.85
2023-03-05T03:18:00.075Z,-3.82
2023-03-05T03:20:28.074Z,-3.77
2023-03-05T03:22:55.992Z,-3.67
2023-03-05T03:25:23.963Z,-3.57
2023-03-05T03:27:53.514Z,-3.49
2023-03-05T03:30:21.473Z,-3.43
2023-03-05T03:32:51.512Z,-3.40
2023-03-05T03:35:19.529Z,-3.38
2023-03-05T03:37:47.650Z,-3.34
2023-03-05T03:40:15.673Z,-3.25
2023-03-05T03:42:43.643Z,-3.17
2023-03-05T03:45:12.279Z,-3.12
2023-03-05T03:47:40.300Z,-3.10
2023-03-05T03:50:08.884Z,-3.11
2023-03-05T03:52:36.895Z,-3.11
2023-03-05T03:55:05.137Z,-3.09
2023-03-05T03:57:33.753Z,-3.05
2023-03-05T04:00:01.751Z,-3.01
2023-03-05T04:02:40.216Z,-2.98
2023-03-05T04:05:08.978Z,-3.00
2023-03-05T04:07:36.948Z,-3.04
2023-03-05T04:10:05.258Z,-3.08
2023-03-05T04:12:33.206Z,-3.09
2023-03-05T04:15:01.128Z,-3.09
2023-03-05T04:17:29.041Z,-3.08
2023-03-05T04:19:56.979Z,-3.05
2023-03-05T04:22:24.947Z,-3.01
2023-03-05T04:24:52.928Z,-3.02
2023-03-05T04:27:20.836Z,-3.03
2023-03-05T04:29:48.906Z,-3.04
2023-03-05T04:32:23.201Z,-3.03
2023-03-05T04:34:51.465Z,-2.98
2023-03-05T04:37:19.449Z,-2.94
2023-03-05T04:39:47.501Z,-2.92
2023-03-05T04:42:15.485Z,-2.94
2023-03-05T04:44:43.535Z,-2.96
2023-03-05T04:47:11.498Z,-2.96
2023-03-05T04:49:39.415Z,-2.92
2023-03-05T04:52:08.087Z,-2.88
2023-03-05T04:54:36.385Z,-2.84
2023-03-05T04:57:04.431Z,-2.83
2023-03-05T04:59:32.770Z,-2.84
2023-03-05T05:02:00.860Z,-2.85
2023-03-05T05:04:30.501Z,-2.85
2023-03-05T05:06:59.205Z,-2.85
2023-03-05T05:09:27.344Z,-2.81
2023-03-05T05:11:56.840Z,-2.77
2023-03-05T05:14:24.842Z,-2.73
2023-03-05T05:16:53.884Z,-2.73
2023-03-05T05:19:21.870Z,-2.74
2023-03-05T05:21:49.927Z,-2.74
2023-03-05T05:24:17.959Z,-2.73
2023-03-05T05:26:45.960Z,-2.69
2023-03-05T05:29:13.925Z,-2.65
2023-03-05T05:31:42.224Z,-2.64
2023-03-05T05:34:10.250Z,-2.63
2023-03-05T05:36:38.264Z,-2.65
2023-03-05T05:39:06.260Z,-2.64
2023-03-05T05:41:34.219Z,-2.61
2023-03-05T05:44:02.130Z,-2.57
2023-03-05T05:46:30.114Z,-2.53
2023-03-05T05:48:58.099Z,-2.51
2023-03-05T05:51:26.120Z,-2.47
2023-03-05T05:53:54.075Z,-2.45
2023-03-05T05:56:22.096Z,-2.43
2023-03-05T05:58:50.212Z,-2.40
2023-03-05T06:01:20.911Z,-2.38
2023-03-05T06:03:48.936Z,-2.31
2023-03-05T06:06:18.092Z,-2.26
2023-03-05T06:08:46.204Z,-2.20
2023-03-05T06:11:15.704Z,-2.15
2023-03-05T06:13:44.937Z,-2.12
2023-03-05T06:16:17.258Z,-2.08
2023-03-05T06:18:45.480Z,-2.06
2023-03-05T06:21:15.380Z,-2.04
2023-03-05T06:23:44.012Z,-1.99
2023-03-05T06:26:13.089Z,-1.95
2023-03-05T06:28:41.099Z,-1.91
2023-03-05T06:31:11.237Z,-1.87
2023-03-05T06:33:39.442Z,-1.81
2023-03-05T06:36:09.128Z,-1.78
2023-03-05T06:38:37.338Z,-1.74
2023-03-05T06:41:11.618Z,-1.72
2023-03-05T06:43:40.701Z,-1.67
2023-03-05T06:46:13.250Z,-1.67
2023-03-05T06:48:41.391Z,-1.67
2023-03-05T06:51:17.481Z,-1.67
2023-03-05T06:53:49.487Z,-1.67
2023-03-05T06:56:18.471Z,-1.68
2023-03-05T06:58:47.986Z,-1.65
2023-03-05T07:01:16.163Z,-1.64
2023-03-05T07:03:44.540Z,-1.59
2023-03-05T07:06:14.009Z,-1.56
2023-03-05T07:08:42.225Z,-1.53
2023-03-05T07:11:14.377Z,-1.48
2023-03-05T07:13:43.911Z,-1.44
2023-03-05T07:16:16.581Z,-1.41
2023-03-05T07:18:44.913Z,-1.36
2023-03-05T07:21:18.056Z,-1.29
2023-03-05T07:23:46.075Z,-1.20
2023-03-05T07:26:14.853Z,-1.17
2023-03-05T07:28:44.050Z,-1.09
2023-03-05T07:31:15.502Z,-1.06
2023-03-05T07:33:44.049Z,-1.06
2023-03-05T07:36:12.633Z,-0.96
2023-03-05T07:38:43.708Z,-0.88
2023-03-05T07:41:20.011Z,-0.77
2023-03-05T07:43:49.090Z,-0.68
2023-03-05T07:46:18.108Z,-0.60
2023-03-05T07:48:46.188Z,-0.53
2023-03-05T07:51:16.632Z,-0.54
2023-03-05T07:53:46.602Z,-0.53
2023-03-05T07:56:21.555Z,-0.44
2023-03-05T07:58:50.037Z,-0.40
2023-03-05T08:01:18.097Z,-0.32
2023-03-05T08:03:46.135Z,-0.23
2023-03-05T08:06:14.302Z,-0.16
2023-03-05T08:08:42.893Z,-0.07
2023-03-05T08:11:12.926Z,-0.08
2023-03-05T08:13:41.725Z,-0.05
2023-03-05T08:16:12.887Z,0.06
2023-03-05T08:18:41.122Z,0.08
2023-03-05T08:21:29.890Z,0.21
2023-03-05T08:23:58.715Z,0.32
2023-03-05T08:26:28.675Z,0.47
2023-03-05T08:28:57.472Z,0.59
2023-03-05T08:31:26.785Z,0.67
2023-03-05T08:33:55.865Z,0.70
2023-03-05T08:36:24.066Z,0.73
2023-03-05T08:38:52.180Z,0.68
2023-03-05T08:41:20.299Z,0.75
2023-03-05T08:43:48.564Z,0.87
2023-03-05T08:46:16.928Z,0.97
2023-03-05T08:48:45.212Z,1.12
2023-03-05T08:51:15.290Z,1.18
2023-03-05T08:53:43.623Z,1.20
2023-03-05T08:56:12.027Z,1.17
2023-03-05T08:58:40.054Z,1.31
2023-03-05T09:01:10.602Z,1.64
2023-03-05T09:03:39.076Z,1.67
2023-03-05T09:06:08.821Z,1.83
2023-03-05T09:08:36.975Z,2.04
2023-03-05T09:11:09.213Z,2.29
2023-03-05T09:13:37.379Z,2.50
2023-03-05T09:16:09.679Z,2.69
2023-03-05T09:18:40.410Z,2.93
2023-03-05T09:21:11.346Z,2.84
2023-03-05T09:23:39.427Z,2.61
2023-03-05T09:26:08.866Z,2.61
2023-03-05T09:28:36.840Z,2.97
2023-03-05T09:31:05.581Z,3.10
2023-03-05T09:33:33.923Z,2.85
2023-03-05T09:36:02.170Z,2.85
2023-03-05T09:38:30.229Z,2.89
2023-03-05T09:41:30.052Z,2.96
2023-03-05T09:44:08.997Z,3.20
2023-03-05T09:47:14.870Z,3.17
2023-03-05T09:49:55.262Z,3.22
2023-03-05T09:52:27.245Z,3.17
2023-03-05T09:54:55.670Z,3.28
2023-03-05T09:57:36.784Z,3.11
2023-03-05T10:00:13.651Z,3.05
2023-03-05T10:02:54.116Z,3.01
2023-03-05T10:05:30.056Z,2.77
2023-03-05T10:08:01.282Z,2.58
2023-03-05T10:10:40.896Z,2.31
2023-03-05T10:13:17.197Z,2.17
2023-03-05T10:16:01.376Z,1.93
2023-03-05T10:18:47.502Z,1.79
2023-03-05T10:21:18.959Z,1.79
2023-03-05T10:24:16.866Z,1.90
2023-03-05T10:27:00.642Z,1.93
2023-03-05T10:29:29.095Z,2.06
2023-03-05T10:32:36.893Z,2.08
2023-03-05T10:35:39.506Z,1.98
2023-03-05T10:38:15.432Z,1.92
2023-03-05T10:40:48.769Z,1.91
2023-03-05T10:43:25.885Z,1.95
2023-03-05T10:45:54.597Z,1.95
2023-03-05T10:48:32.635Z,1.96
2023-03-05T10:51:38.133Z,1.97
2023-03-05T10:54:25.808Z,1.90
2023-03-05T10:57:12.909Z,1.95
2023-03-05T10:59:54.576Z,2.06
2023-03-05T11:02:23.149Z,2.15
2023-03-05T11:04:51.881Z,2.05
2023-03-05T11:07:23.504Z,1.85
2023-03-05T11:10:02.246Z,1.75
2023-03-05T11:12:38.294Z,1.71
2023-03-05T11:15:09.404Z,1.68
2023-03-05T11:17:39.978Z,1.72
2023-03-05T11:20:26.432Z,1.64
2023-03-05T11:23:12.776Z,1.56
2023-03-05T11:26:02.577Z,1.56
2023-03-05T11:28:41.614Z,1.66
2023-03-05T11:31:15.982Z,1.78
2023-03-05T11:33:58.612Z,1.82
2023-03-05T11:36:36.043Z,1.81
2023-03-05T11:39:07.607Z,1.93
2023-03-05T11:41:49.193Z,2.05
2023-03-05T11:44:53.456Z,2.09
2023-03-05T11:47:30.673Z,2.16
2023-03-05T11:50:20.835Z,2.20
2023-03-05T11:52:57.678Z,2.35
2023-03-05T11:55:45.276Z,2.37
2023-03-05T11:58:26.692Z,2.35
2023-03-05T12:00:54.788Z,2.49
2023-03-05T12:03:25.252Z,2.56
2023-03-05T12:05:57.123Z,2.65
2023-03-05T12:08:29.482Z,2.68
2023-03-05T12:10:59.487Z,2.58
2023-03-05T12:13:36.949Z,2.68
2023-03-05T12:16:29.363Z,2.68
2023-03-05T12:19:18.879Z,2.82
2023-03-05T12:21:50.781Z,2.78
2023-03-05T12:24:27.526Z,2.73
2023-03-05T12:27:06.796Z,2.80
2023-03-05T12:29:40.026Z,2.79
2023-03-05T12:32:25.673Z,2.78
2023-03-05T12:35:25.193Z,2.76
2023-03-05T12:37:53.145Z,2.74
2023-03-05T12:40:29.684Z,2.83
2023-03-05T12:42:58.712Z,3.14
2023-03-05T12:45:36.994Z,3.45
2023-03-05T12:48:10.888Z,3.85
2023-03-05T12:50:38.808Z,3.98
2023-03-05T12:53:07.094Z,3.96
2023-03-05T12:55:35.886Z,4.25
2023-03-05T12:58:13.889Z,4.43
2023-03-05T13:00:51.134Z,4.34
2023-03-05T13:03:30.889Z,4.24
2023-03-05T13:06:00.618Z,4.41
2023-03-05T13:08:36.146Z,4.50
2023-03-05T13:11:09.699Z,4.77
2023-03-05T13:13:41.858Z,4.84
2023-03-05T13:16:23.707Z,5.06
2023-03-05T13:18:52.636Z,5.14
2023-03-05T13:21:24.842Z,5.27
2023-03-05T13:24:00.788Z,5.28
2023-03-05T13:26:39.586Z,5.27
2023-03-05T13:29:10.311Z,5.43
2023-03-05T13:31:52.451Z,5.50
2023-03-05T13:34:40.915Z,5.53
2023-03-05T13:37:21.847Z,5.51
2023-03-05T13:40:00.690Z,5.52
2023-03-05T13:42:32.580Z,5.60
2023-03-05T13:45:03.745Z,5.82
2023-03-05T13:47:34.451Z,6.18
2023-03-05T13:50:06.533Z,6.08
2023-03-05T13:52:36.983Z,6.30
2023-03-05T13:55:12.438Z,6.20
2023-03-05T13:57:42.607Z,6.19
2023-03-05T14:00:36.957Z,6.27
2023-03-05T14:03:11.076Z,6.39
2023-03-05T14:05:43.599Z,6.54
2023-03-05T14:08:23.080Z,6.19
2023-03-05T14:10:51.564Z,5.18
2023-03-05T14:13:29.079Z,3.67
2023-03-05T14:16:23.698Z,2.24
2023-03-05T14:18:59.213Z,2.25
2023-03-05T14:21:49.678Z,0.88
2023-03-05T14:24:23.598Z,0.64
2023-03-05T14:26:58.413Z,-0.28
2023-03-05T14:29:27.847Z,-0.53
2023-03-05T14:32:08.611Z,-0.53
2023-03-05T14:34:42.940Z,-0.67
2023-03-05T14:37:21.424Z,-0.76
2023-03-05T14:40:05.610Z,-0.92
2023-03-05T14:42:38.384Z,-0.81
2023-03-05T14:45:13.246Z,-0.74
2023-03-05T14:47:41.752Z,-0.76
2023-03-05T14:50:17.202Z,-0.79
2023-03-05T14:52:45.967Z,-0.81
2023-03-05T14:55:19.353Z,-0.68
2023-03-05T14:57:47.925Z,-0.70
2023-03-05T15:00:24.660Z,-0.59
2023-03-05T15:02:53.150Z,-0.55
2023-03-05T15:05:22.070Z,-0.41
2023-03-05T15:07:52.253Z,-0.30
2023-03-05T15:10:23.364Z,-0.22
2023-03-05T15:12:52.994Z,-0.15
2023-03-05T15:15:21.308Z,-0.11
2023-03-05T15:17:52.415Z,-0.11
2023-03-05T15:20:25.544Z,-0.11
2023-03-05T15:22:53.835Z,-0.13
2023-03-05T15:25:32.951Z,-0.19
2023-03-05T15:28:01.336Z,-0.22
2023-03-05T15:30:51.244Z,-0.26
2023-03-05T15:33:19.458Z,-0.29
2023-03-05T15:35:47.678Z,-0.29
2023-03-05T15:38:16.331Z,-0.30
2023-03-05T15:40:45.075Z,-0.32
2023-03-05T15:43:14.076Z,-0.30
2023-03-05T15:45:42.066Z,-0.29
2023-03-05T15:48:11.859Z,-0.30
2023-03-05T15:50:42.794Z,-0.30
2023-03-05T15:53:12.361Z,-0.29
2023-03-05T15:55:40.542Z,-0.34
2023-03-05T15:58:08.588Z,-0.39
2023-03-05T16:00:37.367Z,-0.48
2023-03-05T16:03:07.791Z,-0.56
2023-03-05T16:05:36.166Z,-0.61
2023-03-05T16:08:04.224Z,-0.66
2023-03-05T16:10:32.423Z,-0.72
2023-03-05T16:13:06.815Z,-0.79
2023-03-05T16:15:35.298Z,-0.85
2023-03-05T16:18:06.857Z,-0.92
2023-03-05T16:20:36.418Z,-1.00
2023-03-05T16:23:05.537Z,-1.09
2023-03-05T16:25:34.796Z,-1.21
2023-03-05T16:28:03.055Z,-1.27
2023-03-05T16:30:33.401Z,-1.34
2023-03-05T16:33:04.177Z,-1.41
2023-03-05T16:35:35.106Z,-1.49
2023-03-05T16:38:04.630Z,-1.58
2023-03-05T16:41:05.602Z,-1.62
2023-03-05T16:43:24.263Z,-1.68
2023-03-05T16:45:55.558Z,-1.68
2023-03-05T16:48:28.078Z,-1.68
2023-03-05T16:50:59.143Z,-1.69
2023-03-05T16:53:28.146Z,-1.72
2023-03-05T16:55:56.190Z,-1.79
2023-03-05T16:58:24.382Z,-1.87
2023-03-05T17:00:52.571Z,-1.97
2023-03-05T17:03:20.815Z,-2.06
2023-03-05T17:05:51.450Z,-2.12
2023-03-05T17:08:19.610Z,-2.15
2023-03-05T17:10:47.601Z,-2.13
2023-03-05T17:13:15.677Z,-2.13
2023-03-05T17:18:11.885Z,-2.18
2023-03-05T17:20:41.254Z,-2.25
2023-03-05T17:23:09.632Z,-2.31
2023-03-05T17:25:37.672Z,-2.35
2023-03-05T17:28:06.185Z,-2.35
2023-03-05T17:30:37.153Z,-2.36
2023-03-05T17:33:05.175Z,-2.38
2023-03-05T17:35:35.298Z,-2.41
2023-03-05T17:38:05.112Z,-2.46
2023-03-05T17:40:34.076Z,-2.51
2023-03-05T17:43:02.928Z,-2.54
2023-03-05T17:45:31.370Z,-2.57
2023-03-05T17:47:59.406Z,-2.59
2023-03-05T17:50:27.316Z,-2.64
2023-03-05T17:52:55.511Z,-2.68
2023-03-05T17:55:24.847Z,-2.70
2023-03-05T17:57:53.023Z,-2.70
2023-03-05T18:00:23.248Z,-2.69
2023-03-05T18:02:51.482Z,-2.69
2023-03-05T18:05:21.003Z,-2.73
2023-03-05T18:07:48.988Z,-2.79
2023-03-05T18:10:17.424Z,-2.86
2023-03-05T18:12:45.698Z,-2.95
2023-03-05T18:15:15.055Z,-3.00
2023-03-05T18:17:43.121Z,-2.99
2023-03-05T18:20:23.698Z,-2.99
2023-03-05T18:22:51.784Z,-2.98
2023-03-05T18:25:19.794Z,-2.98
2023-03-05T18:27:47.855Z,-2.99
2023-03-05T18:30:17.120Z,-3.03
2023-03-05T18:32:47.038Z,-3.05
2023-03-05T18:35:15.930Z,-3.02
2023-03-05T18:37:43.974Z,-2.97
2023-03-05T18:40:20.505Z,-2.94
2023-03-05T18:42:49.091Z,-2.96
2023-03-05T18:45:19.112Z,-3.01
2023-03-05T18:47:48.035Z,-3.08
2023-03-05T18:50:18.655Z,-3.11
2023-03-05T18:52:48.020Z,-3.13
2023-03-05T18:55:20.531Z,-3.14
2023-03-05T18:57:49.646Z,-3.13
2023-03-05T19:00:22.144Z,-3.13
2023-03-05T19:02:50.526Z,-3.10
2023-03-05T19:05:18.785Z,-3.11
2023-03-05T19:07:47.010Z,-3.15
2023-03-05T19:10:15.296Z,-3.22
2023-03-05T19:12:49.895Z,-3.32
2023-03-05T19:15:18.087Z,-3.41
2023-03-05T19:17:46.076Z,-3.45
2023-03-05T19:20:14.186Z,-3.48
2023-03-05T19:22:42.440Z,-3.53
2023-03-05T19:25:10.802Z,-3.55
2023-03-05T19:27:38.900Z,-3.57
2023-03-05T19:30:07.569Z,-3.60
2023-03-05T19:32:36.240Z,-3.63
2023-03-05T19:35:04.560Z,-3.64
2023-03-05T19:37:32.938Z,-3.64
2023-03-05T19:40:00.972Z,-3.63
2023-03-05T19:42:31.103Z,-3.64
2023-03-05T19:45:00.145Z,-3.63
2023-03-05T19:47:28.551Z,-3.64
2023-03-05T19:49:56.674Z,-3.66
2023-03-05T19:52:24.907Z,-3.67
2023-03-05T19:54:53.099Z,-3.68
2023-03-05T19:57:21.317Z,-3.71
2023-03-05T19:59:53.218Z,-3.77
2023-03-05T20:02:22.069Z,-3.83
2023-03-05T20:04:58.872Z,-3.89
2023-03-05T20:07:27.091Z,-3.95
2023-03-05T20:09:55.614Z,-4.00
2023-03-05T20:12:24.054Z,-4.02
2023-03-05T20:14:52.413Z,-4.06
2023-03-05T20:17:21.102Z,-4.12
2023-03-05T20:19:50.122Z,-4.18
2023-03-05T20:22:21.221Z,-4.24
2023-03-05T20:24:49.850Z,-4.29
2023-03-05T20:27:18.611Z,-4.31
2023-03-05T20:29:46.904Z,-4.35
2023-03-05T20:32:16.147Z,-4.38
2023-03-05T20:34:44.927Z,-4.39
2023-03-05T20:37:13.037Z,-4.41
2023-03-05T20:39:42.364Z,-4.40
2023-03-05T20:42:12.976Z,-4.40
2023-03-05T20:44:43.141Z,-4.38
2023-03-05T20:47:31.091Z,-4.36
2023-03-05T20:50:00.433Z,-4.35
2023-03-05T20:52:28.773Z,-4.35
2023-03-05T20:54:56.773Z,-4.35
2023-03-05T20:57:25.301Z,-4.35
2023-03-05T20:59:54.224Z,-4.32
2023-03-05T21:02:22.224Z,-4.29
2023-03-05T21:04:50.534Z,-4.27
2023-03-05T21:07:19.014Z,-4.26
2023-03-05T21:09:48.178Z,-4.27
2023-03-05T21:12:16.395Z,-4.32
2023-03-05T21:14:46.668Z,-4.39
2023-03-05T21:17:20.585Z,-4.45
2023-03-05T21:19:51.072Z,-4.45
2023-03-05T21:22:20.049Z,-4.43
2023-03-05T21:25:02.197Z,-4.40
2023-03-05T21:27:30.111Z,-4.39
2023-03-05T21:29:58.237Z,-4.39
2023-03-05T21:32:26.398Z,-4.42
2023-03-05T21:34:54.413Z,-4.43
2023-03-05T21:37:22.374Z,-4.40
2023-03-05T21:39:51.588Z,-4.38
2023-03-05T21:42:19.686Z,-4.38
2023-03-05T21:44:47.921Z,-4.41
2023-03-05T21:47:15.802Z,-4.46
2023-03-05T21:49:44.602Z,-4.53
2023-03-05T21:52:12.958Z,-4.56
2023-03-05T21:54:41.892Z,-4.56
2023-03-05T21:57:10.527Z,-4.53
2023-03-05T21:59:42.061Z,-4.50
2023-03-05T22:02:14.247Z,-4.47
2023-03-05T22:04:42.321Z,-4.47
2023-03-05T22:07:10.429Z,-4.51
2023-03-05T22:09:38.360Z,-4.53
2023-03-05T22:12:10.294Z,-4.53
2023-03-05T22:14:38.245Z,-4.52
2023-03-05T22:17:06.160Z,-4.51
2023-03-05T22:19:34.185Z,-4.49
2023-03-05T22:22:02.269Z,-4.51
2023-03-05T22:24:30.246Z,-4.54
2023-03-05T22:26:58.215Z,-4.57
2023-03-05T22:29:27.460Z,-4.60
2023-03-05T22:31:55.537Z,-4.65
2023-03-05T22:34:23.479Z,-4.70
2023-03-05T22:36:51.442Z,-4.75
2023-03-05T22:39:19.573Z,-4.80
2023-03-05T22:41:48.215Z,-4.85
2023-03-05T22:44:16.988Z,-4.89
2023-03-05T22:46:44.954Z,-4.93
2023-03-05T22:49:12.829Z,-4.95
2023-03-05T22:51:41.058Z,-4.96
2023-03-05T22:54:09.016Z,-4.96
2023-03-05T22:56:37.023Z,-4.98
2023-03-05T22:59:05.093Z,-5.00
2023-03-05T23:01:33.388Z,-5.03
2023-03-05T23:04:08.276Z,-5.05
2023-03-05T23:06:36.314Z,-5.05
2023-03-05T23:09:04.302Z,-5.04
2023-03-05T23:11:32.291Z,-5.04
2023-03-05T23:14:00.285Z,-5.04
2023-03-05T23:16:28.274Z,-5.03
2023-03-05T23:18:56.228Z,-5.07
2023-03-05T23:21:24.216Z,-5.09
2023-03-05T23:23:53.178Z,-5.12
2023-03-05T23:26:21.227Z,-5.15
2023-03-05T23:28:49.286Z,-5.19
2023-03-05T23:31:18.848Z,-5.21
2023-03-05T23:33:46.961Z,-5.25
2023-03-05T23:36:14.989Z,-5.27
2023-03-05T23:38:42.951Z,-5.30
2023-03-05T23:41:10.920Z,-5.32
2023-03-05T23:43:38.833Z,-5.33
2023-03-05T23:46:10.755Z,-5.36
2023-03-05T23:48:38.774Z,-5.37
2023-03-05T23:51:10.236Z,-5.39
2023-03-05T23:53:38.204Z,-5.39
2023-03-05T23:56:10.679Z,-5.39
2023-03-05T23:58:38.647Z,-5.39
